createdAt,value
2023-03-26T00:00:00.868Z,86.25
2023-03-26T00:01:00.858Z,87.04
2023-03-26T00:02:00.988Z,86.73
2023-03-26T00:03:00.877Z,86.83
2023-03-26T00:04:00.849Z,86.42
2023-03-26T00:05:00.802Z,87.28
2023-03-26T00:06:00.837Z,87.34
2023-03-26T00:07:00.816Z,87.55
2023-03-26T00:08:00.798Z,87.34
2023-03-26T00:09:00.788Z,87.55
2023-03-26T00:10:00.797Z,87.79
2023-03-26T00:11:01.249Z,87.90
2023-03-26T00:12:01.784Z,88.31
2023-03-26T00:13:00.778Z,87.90
2023-03-26T00:14:00.786Z,87.96
2023-03-26T00:15:00.756Z,87.55
2023-03-26T00:16:00.771Z,87.45
2023-03-26T00:17:00.768Z,87.24
2023-03-26T00:18:00.832Z,86.93
2023-03-26T00:19:00.754Z,87.45
2023-03-26T00:20:00.733Z,86.32
2023-03-26T00:21:00.719Z,87.04
2023-03-26T00:22:00.744Z,85.71
2023-03-26T00:23:00.692Z,86.22
2023-03-26T00:24:00.710Z,86.07
2023-03-26T00:25:00.713Z,86.22
2023-03-26T00:26:00.691Z,86.93
2023-03-26T00:27:00.708Z,86.83
2023-03-26T00:28:00.711Z,87.14
2023-03-26T00:29:00.765Z,86.01
2023-03-26T00:30:00.682Z,86.83
2023-03-26T00:31:00.718Z,86.11
2023-03-26T00:32:00.650Z,86.28
2023-03-26T00:33:00.684Z,86.01
2023-03-26T00:34:00.674Z,85.87
2023-03-26T00:35:00.653Z,85.87
2023-03-26T00:36:02.571Z,85.77
2023-03-26T00:37:00.651Z,85.80
2023-03-26T00:38:00.618Z,85.80
2023-03-26T00:39:00.611Z,86.52
2023-03-26T00:40:00.928Z,86.93
2023-03-26T00:41:00.616Z,86.32
2023-03-26T00:42:00.622Z,85.95
2023-03-26T00:43:00.590Z,86.11
2023-03-26T00:44:00.619Z,86.66
2023-03-26T00:45:00.634Z,87.08
2023-03-26T00:46:00.655Z,86.05
2023-03-26T00:47:00.572Z,86.73
2023-03-26T00:48:02.841Z,87.14
2023-03-26T00:49:01.581Z,87.18
2023-03-26T00:50:00.545Z,86.63
2023-03-26T00:51:00.592Z,86.11
2023-03-26T00:52:00.567Z,86.32
2023-03-26T00:53:00.556Z,86.22
2023-03-26T00:54:00.559Z,86.52
2023-03-26T00:55:00.558Z,86.01
2023-03-26T00:56:00.626Z,86.11
2023-03-26T00:57:00.530Z,86.01
2023-03-26T00:58:00.520Z,86.11
2023-03-26T00:59:00.520Z,86.11
2023-03-26T01:00:00.533Z,85.91
2023-03-26T01:01:00.507Z,86.25
2023-03-26T01:02:00.564Z,85.85
2023-03-26T01:03:00.593Z,85.85
2023-03-26T01:04:07.584Z,86.25
2023-03-26T01:05:02.530Z,85.64
2023-03-26T01:06:00.448Z,85.23
2023-03-26T01:07:00.456Z,85.13
2023-03-26T01:08:00.479Z,85.33
2023-03-26T01:09:00.552Z,85.03
2023-03-26T01:10:00.431Z,84.92
2023-03-26T01:11:00.438Z,84.78
2023-03-26T01:12:01.436Z,84.52
2023-03-26T01:13:00.435Z,85.13
2023-03-26T01:14:00.428Z,84.00
2023-03-26T01:15:00.418Z,84.45
2023-03-26T01:16:00.440Z,85.06
2023-03-26T01:17:00.414Z,83.94
2023-03-26T01:18:00.442Z,83.12
2023-03-26T01:19:00.383Z,83.07
2023-03-26T01:20:00.411Z,82.56
2023-03-26T01:21:00.371Z,82.77
2023-03-26T01:22:00.369Z,83.39
2023-03-26T01:23:00.419Z,83.32
2023-03-26T01:24:00.363Z,83.63
2023-03-26T01:25:00.359Z,83.07
2023-03-26T01:26:00.356Z,82.87
2023-03-26T01:27:00.355Z,82.97
2023-03-26T01:28:00.361Z,83.07
2023-03-26T01:29:00.356Z,83.18
2023-03-26T01:30:00.312Z,83.28
2023-03-26T01:31:00.308Z,83.45
2023-03-26T01:32:00.314Z,82.83
2023-03-26T01:33:00.375Z,83.59
2023-03-26T01:34:00.286Z,83.45
2023-03-26T01:35:00.303Z,83.07
2023-03-26T01:36:00.344Z,83.07
2023-03-26T01:37:00.282Z,83.07
2023-03-26T01:38:00.310Z,83.63
2023-03-26T01:39:00.543Z,84.04
2023-03-26T01:40:00.307Z,83.69
2023-03-26T01:41:00.280Z,83.69
2023-03-26T01:42:00.243Z,82.97
2023-03-26T01:43:00.247Z,83.01
2023-03-26T01:44:00.350Z,83.83
2023-03-26T01:45:00.240Z,83.59
2023-03-26T01:46:00.223Z,82.87
2023-03-26T01:47:00.262Z,82.63
2023-03-26T01:48:00.263Z,82.08
2023-03-26T01:49:00.211Z,81.77
2023-03-26T01:50:00.218Z,81.57
2023-03-26T01:51:00.214Z,81.26
2023-03-26T01:52:00.180Z,80.85
2023-03-26T01:53:00.215Z,82.01
2023-03-26T01:54:00.210Z,81.29
2023-03-26T01:55:00.182Z,81.81
2023-03-26T01:56:00.214Z,81.87
2023-03-26T01:57:00.328Z,81.26
2023-03-26T01:58:00.155Z,82.01
2023-03-26T01:59:00.158Z,81.87
2023-03-26T02:00:00.176Z,81.57
2023-03-26T02:01:00.433Z,81.57
2023-03-26T02:02:00.258Z,81.09
2023-03-26T02:03:00.222Z,81.57
2023-03-26T02:04:00.132Z,80.58
2023-03-26T02:05:00.153Z,81.54
2023-03-26T02:06:00.146Z,82.56
2023-03-26T02:07:00.105Z,82.32
2023-03-26T02:08:00.102Z,81.57
2023-03-26T02:09:00.108Z,81.15
2023-03-26T02:10:00.160Z,80.33
2023-03-26T02:11:00.113Z,81.43
2023-03-26T02:12:00.113Z,80.64
2023-03-26T02:13:00.069Z,80.27
2023-03-26T02:14:00.055Z,80.23
2023-03-26T02:15:00.041Z,80.44
2023-03-26T02:16:00.114Z,80.19
2023-03-26T02:17:00.036Z,80.09
2023-03-26T02:18:00.140Z,80.40
2023-03-26T02:19:00.024Z,80.77
2023-03-26T02:20:00.031Z,80.57
2023-03-26T02:21:00.031Z,79.85
2023-03-26T02:22:00.068Z,79.82
2023-03-26T02:22:59.999Z,79.61
2023-03-26T02:23:59.992Z,78.89
2023-03-26T02:24:59.981Z,78.89
2023-03-26T02:26:00.140Z,78.89
2023-03-26T02:26:59.974Z,78.89
2023-03-26T02:27:59.969Z,79.20
2023-03-26T02:28:59.955Z,79.37
2023-03-26T02:29:59.960Z,78.96
2023-03-26T02:30:59.962Z,79.06
2023-03-26T02:32:00.055Z,79.06
2023-03-26T02:33:00.969Z,79.37
2023-03-26T02:33:59.937Z,79.06
2023-03-26T02:34:59.993Z,79.16
2023-03-26T02:36:00.022Z,78.75
2023-03-26T02:36:59.922Z,79.10
2023-03-26T02:37:59.933Z,79.00
2023-03-26T02:38:59.890Z,79.50
2023-03-26T02:39:59.895Z,79.82
2023-03-26T02:40:59.900Z,80.57
2023-03-26T02:41:59.891Z,80.26
2023-03-26T02:42:59.883Z,80.88
2023-03-26T02:43:59.866Z,80.33
2023-03-26T02:44:59.877Z,80.33
2023-03-26T02:45:59.944Z,80.63
2023-03-26T02:46:59.840Z,80.94
2023-03-26T02:47:59.922Z,80.94
2023-03-26T02:48:59.857Z,80.74
2023-03-26T02:49:59.837Z,80.63
2023-03-26T02:50:59.822Z,80.74
2023-03-26T02:51:59.814Z,80.33
2023-03-26T02:52:59.814Z,80.94
2023-03-26T02:53:59.822Z,80.74
2023-03-26T02:54:59.820Z,81.04
2023-03-26T02:55:59.792Z,80.74
2023-03-26T02:56:59.793Z,80.94
2023-03-26T02:57:59.804Z,81.38
2023-03-26T02:58:59.814Z,81.18
2023-03-26T02:59:59.776Z,81.24
2023-03-26T03:00:59.794Z,81.04
2023-03-26T03:01:59.825Z,80.46
2023-03-26T03:02:59.830Z,81.59
2023-03-26T03:03:59.813Z,81.76
2023-03-26T03:04:59.738Z,81.04
2023-03-26T03:05:59.758Z,80.63
2023-03-26T03:06:59.783Z,81.15
2023-03-26T03:07:59.727Z,80.63
2023-03-26T03:08:59.743Z,80.53
2023-03-26T03:09:59.731Z,80.05
2023-03-26T03:10:59.723Z,80.88
2023-03-26T03:11:59.718Z,80.98
2023-03-26T03:12:59.737Z,80.74
2023-03-26T03:13:59.696Z,80.83
2023-03-26T03:14:59.688Z,80.74
2023-03-26T03:15:59.675Z,80.80
2023-03-26T03:16:59.694Z,81.21
2023-03-26T03:17:59.723Z,80.43
2023-03-26T03:18:59.681Z,80.02
2023-03-26T03:19:59.735Z,80.39
2023-03-26T03:20:59.645Z,80.19
2023-03-26T03:21:59.647Z,80.53
2023-03-26T03:22:59.664Z,80.29
2023-03-26T03:24:00.134Z,80.74
2023-03-26T03:24:59.636Z,80.39
2023-03-26T03:25:59.736Z,80.33
2023-03-26T03:26:59.635Z,81.10
2023-03-26T03:27:59.612Z,80.69
2023-03-26T03:28:59.670Z,80.94
2023-03-26T03:29:59.608Z,80.94
2023-03-26T03:30:59.627Z,80.60
2023-03-26T03:31:59.629Z,80.12
2023-03-26T03:32:59.613Z,81.15
2023-03-26T03:33:59.575Z,81.76
2023-03-26T03:34:59.602Z,81.70
2023-03-26T03:35:59.610Z,81.90
2023-03-26T03:36:59.577Z,82.10
2023-03-26T03:37:59.558Z,81.94
2023-03-26T03:38:59.541Z,81.63
2023-03-26T03:39:59.549Z,82.04
2023-03-26T03:40:59.528Z,81.94
2023-03-26T03:41:59.553Z,82.04
2023-03-26T03:42:59.551Z,82.21
2023-03-26T03:43:59.515Z,82.31
2023-03-26T03:44:59.550Z,81.56
2023-03-26T03:45:59.515Z,81.56
2023-03-26T03:46:59.501Z,81.86
2023-03-26T03:47:59.520Z,81.82
2023-03-26T03:48:59.517Z,81.72
2023-03-26T03:49:59.471Z,81.56
2023-03-26T03:50:59.496Z,81.41
2023-03-26T03:51:59.458Z,81.76
2023-03-26T03:52:59.473Z,81.01
2023-03-26T03:53:59.472Z,81.15
2023-03-26T03:54:59.453Z,81.56
2023-03-26T03:55:59.450Z,81.45
2023-03-26T03:56:59.552Z,81.62
2023-03-26T03:57:59.450Z,82.13
2023-03-26T03:58:59.428Z,81.51
2023-03-26T03:59:59.463Z,81.62
2023-03-26T04:00:59.413Z,82.13
2023-03-26T04:01:59.430Z,81.86
2023-03-26T04:02:59.465Z,81.72
2023-03-26T04:03:59.547Z,81.62
2023-03-26T04:04:59.401Z,81.76
2023-03-26T04:05:59.400Z,81.62
2023-03-26T04:06:59.376Z,81.41
2023-03-26T04:07:59.369Z,81.21
2023-03-26T04:08:59.421Z,81.51
2023-03-26T04:09:59.359Z,81.72
2023-03-26T04:10:59.351Z,81.56
2023-03-26T04:11:59.360Z,81.24
2023-03-26T04:12:59.345Z,82.17
2023-03-26T04:13:59.341Z,82.17
2023-03-26T04:14:59.334Z,81.86
2023-03-26T04:15:59.549Z,81.76
2023-03-26T04:16:59.329Z,81.65
2023-03-26T04:17:59.316Z,82.68
2023-03-26T04:18:59.329Z,82.54
2023-03-26T04:19:59.302Z,82.57
2023-03-26T04:20:59.296Z,82.34
2023-03-26T04:21:59.273Z,81.72
2023-03-26T04:22:59.276Z,81.82
2023-03-26T04:23:59.304Z,81.72
2023-03-26T04:24:59.258Z,81.72
2023-03-26T04:25:59.262Z,81.31
2023-03-26T04:26:59.249Z,81.41
2023-03-26T04:27:59.245Z,81.62
2023-03-26T04:28:59.237Z,81.04
2023-03-26T04:29:59.253Z,81.76
2023-03-26T04:30:59.285Z,80.94
2023-03-26T04:31:59.230Z,81.76
2023-03-26T04:32:59.249Z,81.56
2023-03-26T04:33:59.215Z,81.49
2023-03-26T04:34:59.303Z,81.73
2023-03-26T04:35:59.250Z,83.20
2023-03-26T04:36:59.228Z,83.65
2023-03-26T04:37:59.200Z,83.72
2023-03-26T04:38:59.179Z,83.92
2023-03-26T04:39:59.215Z,83.06
2023-03-26T04:40:59.196Z,82.65
2023-03-26T04:41:59.175Z,83.27
2023-03-26T04:42:59.165Z,82.24
2023-03-26T04:43:59.165Z,83.10
2023-03-26T04:44:59.158Z,82.76
2023-03-26T04:45:59.175Z,82.55
2023-03-26T04:46:59.199Z,83.37
2023-03-26T04:47:59.195Z,83.06
2023-03-26T04:48:59.117Z,81.73
2023-03-26T04:49:59.133Z,82.55
2023-03-26T04:50:59.129Z,82.76
2023-03-26T04:51:59.137Z,82.76
2023-03-26T04:52:59.116Z,82.45
2023-03-26T04:53:59.104Z,82.55
2023-03-26T04:54:59.131Z,82.35
2023-03-26T04:55:59.078Z,82.69
2023-03-26T04:56:59.117Z,83.04
2023-03-26T04:57:59.138Z,83.04
2023-03-26T04:58:59.065Z,83.69
2023-03-26T04:59:59.064Z,85.17
2023-03-26T05:00:59.085Z,85.68
2023-03-26T05:02:00.146Z,86.09
2023-03-26T05:02:59.035Z,85.93
2023-03-26T05:03:59.088Z,86.33
2023-03-26T05:04:59.025Z,86.75
2023-03-26T05:05:59.090Z,86.50
2023-03-26T05:07:00.028Z,86.33
2023-03-26T05:07:59.050Z,86.30
2023-03-26T05:08:59.017Z,86.40
2023-03-26T05:09:58.998Z,85.89
2023-03-26T05:10:59.003Z,86.09
2023-03-26T05:11:59.017Z,85.47
2023-03-26T05:12:59.832Z,85.38
2023-03-26T05:13:59.028Z,85.58
2023-03-26T05:14:58.987Z,85.31
2023-03-26T05:15:58.999Z,85.35
2023-03-26T05:16:58.964Z,86.42
2023-03-26T05:17:59.055Z,87.04
2023-03-26T05:18:58.976Z,87.69
2023-03-26T05:19:58.979Z,87.69
2023-03-26T05:20:58.949Z,87.73
2023-03-26T05:21:58.920Z,88.24
2023-03-26T05:22:58.924Z,89.11
2023-03-26T05:23:58.925Z,89.67
2023-03-26T05:24:58.917Z,89.83
2023-03-26T05:25:58.912Z,90.00
2023-03-26T05:26:58.928Z,89.38
2023-03-26T05:27:58.900Z,88.45
2023-03-26T05:28:58.907Z,88.86
2023-03-26T05:29:58.940Z,88.86
2023-03-26T05:30:58.887Z,88.41
2023-03-26T05:31:58.876Z,87.79
2023-03-26T05:32:58.973Z,87.94
2023-03-26T05:33:58.853Z,87.69
2023-03-26T05:34:58.853Z,87.59
2023-03-26T05:35:58.930Z,87.59
2023-03-26T05:36:58.835Z,86.97
2023-03-26T05:37:58.830Z,87.24
2023-03-26T05:38:58.854Z,86.62
2023-03-26T05:39:58.829Z,86.58
2023-03-26T05:40:58.829Z,85.97
2023-03-26T05:41:58.808Z,85.86
2023-03-26T05:42:58.827Z,85.35
2023-03-26T05:43:58.801Z,85.31
2023-03-26T05:44:58.794Z,85.31
2023-03-26T05:45:58.798Z,85.31
2023-03-26T05:46:58.785Z,85.17
2023-03-26T05:47:58.813Z,85.17
2023-03-26T05:48:58.769Z,85.33
2023-03-26T05:49:58.757Z,84.31
2023-03-26T05:50:58.764Z,84.10
2023-03-26T05:51:58.771Z,83.76
2023-03-26T05:52:58.758Z,83.18
2023-03-26T05:53:58.747Z,83.94
2023-03-26T05:54:58.771Z,84.14
2023-03-26T05:55:58.766Z,84.52
2023-03-26T05:56:58.778Z,84.06
2023-03-26T05:57:58.709Z,83.65
2023-03-26T05:58:58.719Z,83.96
2023-03-26T05:59:58.718Z,83.45
2023-03-26T06:00:58.720Z,83.55
2023-03-26T06:01:58.691Z,83.96
2023-03-26T06:02:58.848Z,83.31
2023-03-26T06:03:58.774Z,83.10
2023-03-26T06:04:58.701Z,83.45
2023-03-26T06:05:58.694Z,83.10
2023-03-26T06:06:58.694Z,82.90
2023-03-26T06:07:58.672Z,83.10
2023-03-26T06:09:01.548Z,82.59
2023-03-26T06:09:58.639Z,82.76
2023-03-26T06:10:58.644Z,82.28
2023-03-26T06:12:33.673Z,82.24
2023-03-26T06:13:33.654Z,82.41
2023-03-26T06:13:58.670Z,81.79
2023-03-26T06:14:58.616Z,81.90
2023-03-26T06:15:58.710Z,81.63
2023-03-26T06:16:58.611Z,82.65
2023-03-26T06:17:58.633Z,82.55
2023-03-26T06:18:58.676Z,82.79
2023-03-26T06:19:58.592Z,82.53
2023-03-26T06:20:58.605Z,83.86
2023-03-26T06:21:58.557Z,84.27
2023-03-26T06:22:58.574Z,83.98
2023-03-26T06:23:58.571Z,83.37
2023-03-26T06:24:58.578Z,83.47
2023-03-26T06:25:58.521Z,82.65
2023-03-26T06:26:59.532Z,82.35
2023-03-26T06:27:58.543Z,81.98
2023-03-26T06:28:58.597Z,83.00
2023-03-26T06:29:58.552Z,81.73
2023-03-26T06:30:58.524Z,82.55
2023-03-26T06:32:09.201Z,81.59
2023-03-26T06:33:00.560Z,80.67
2023-03-26T06:33:58.530Z,81.18
2023-03-26T06:34:58.576Z,80.33
2023-03-26T06:35:58.540Z,80.53
2023-03-26T06:36:58.503Z,80.08
2023-03-26T06:37:58.609Z,80.63
2023-03-26T06:38:58.470Z,79.61
2023-03-26T06:39:58.480Z,80.19
2023-03-26T06:40:58.464Z,80.51
2023-03-26T06:41:58.450Z,80.67
2023-03-26T06:43:08.342Z,79.75
2023-03-26T06:43:59.452Z,80.36
2023-03-26T06:44:58.434Z,80.46
2023-03-26T06:45:58.501Z,79.85
2023-03-26T06:46:58.472Z,80.67
2023-03-26T06:47:58.416Z,80.57
2023-03-26T06:48:58.429Z,80.67
2023-03-26T06:49:58.460Z,80.57
2023-03-26T06:51:38.559Z,80.36
2023-03-26T06:51:59.540Z,80.43
2023-03-26T06:52:58.459Z,79.82
2023-03-26T06:53:58.467Z,79.41
2023-03-26T06:54:58.439Z,79.61
2023-03-26T06:55:58.436Z,79.78
2023-03-26T06:56:58.434Z,78.96
2023-03-26T06:57:58.422Z,78.34
2023-03-26T06:58:58.475Z,77.63
2023-03-26T06:59:59.611Z,78.07
2023-03-26T07:00:58.497Z,77.45
2023-03-26T07:01:58.395Z,76.09
2023-03-26T07:02:58.352Z,76.64
2023-03-26T07:03:59.828Z,76.50
2023-03-26T07:04:58.309Z,77.22
2023-03-26T07:05:58.320Z,76.50
2023-03-26T07:06:58.293Z,76.23
2023-03-26T07:07:58.332Z,76.50
2023-03-26T07:08:58.278Z,76.50
2023-03-26T07:09:58.271Z,76.60
2023-03-26T07:10:58.309Z,77.31
2023-03-26T07:11:58.304Z,76.74
2023-03-26T07:12:58.274Z,76.70
2023-03-26T07:13:58.250Z,76.50
2023-03-26T07:15:00.351Z,77.22
2023-03-26T07:15:58.319Z,77.38
2023-03-26T07:16:58.242Z,75.58
2023-03-26T07:17:58.277Z,76.40
2023-03-26T07:18:58.233Z,75.37
2023-03-26T07:19:58.228Z,75.78
2023-03-26T07:20:58.200Z,75.51
2023-03-26T07:21:58.197Z,76.09
2023-03-26T07:22:58.196Z,75.51
2023-03-26T07:23:58.213Z,75.10
2023-03-26T07:24:58.166Z,74.93
2023-03-26T07:25:58.198Z,75.71
2023-03-26T07:26:58.149Z,76.16
2023-03-26T07:27:58.189Z,76.02
2023-03-26T07:29:03.626Z,75.44
2023-03-26T07:30:00.137Z,75.58
2023-03-26T07:30:58.123Z,75.68
2023-03-26T07:31:58.165Z,75.99
2023-03-26T07:32:58.149Z,76.56
2023-03-26T07:33:58.116Z,76.26
2023-03-26T07:34:58.088Z,76.67
2023-03-26T07:35:58.202Z,75.68
2023-03-26T07:36:58.099Z,76.26
2023-03-26T07:37:58.074Z,75.61
2023-03-26T07:38:58.095Z,75.10
2023-03-26T07:39:58.819Z,75.61
2023-03-26T07:40:58.061Z,75.92
2023-03-26T07:41:58.079Z,74.66
2023-03-26T07:42:58.060Z,75.23
2023-03-26T07:43:58.074Z,74.01
2023-03-26T07:44:58.017Z,73.71
2023-03-26T07:45:58.048Z,73.36
2023-03-26T07:46:58.033Z,74.25
2023-03-26T07:47:58.073Z,74.83
2023-03-26T07:48:58.013Z,73.03
2023-03-26T07:49:58.036Z,74.55
2023-03-26T07:50:58.343Z,75.07
2023-03-26T07:51:57.984Z,74.32
2023-03-26T07:52:58.045Z,73.57
2023-03-26T07:53:57.963Z,73.33
2023-03-26T07:54:58.147Z,72.78
2023-03-26T07:55:57.979Z,71.84
2023-03-26T07:56:59.141Z,71.53
2023-03-26T07:57:58.932Z,72.86
2023-03-26T07:58:58.925Z,72.92
2023-03-26T07:59:58.903Z,73.02
2023-03-26T08:00:57.950Z,73.16
2023-03-26T08:01:57.971Z,75.10
2023-03-26T08:02:58.036Z,75.89
2023-03-26T08:03:58.039Z,76.16
2023-03-26T08:04:57.970Z,75.61
2023-03-26T08:05:57.891Z,75.20
2023-03-26T08:06:57.931Z,74.49
2023-03-26T08:07:57.919Z,74.87
2023-03-26T08:08:57.875Z,75.78
2023-03-26T08:09:57.864Z,77.08
2023-03-26T08:10:58.061Z,77.25
2023-03-26T08:11:57.878Z,77.11
2023-03-26T08:12:57.862Z,75.95
2023-03-26T08:13:57.857Z,75.34
2023-03-26T08:14:57.897Z,76.36
2023-03-26T08:15:58.550Z,75.78
2023-03-26T08:16:57.882Z,76.67
2023-03-26T08:17:58.057Z,76.36
2023-03-26T08:18:57.807Z,75.58
2023-03-26T08:19:57.803Z,76.94
2023-03-26T08:20:57.785Z,77.97
2023-03-26T08:21:57.797Z,76.29
2023-03-26T08:22:58.354Z,75.89
2023-03-26T08:23:57.811Z,77.28
2023-03-26T08:24:57.772Z,75.54
2023-03-26T08:25:57.767Z,76.29
2023-03-26T08:26:57.809Z,77.11
2023-03-26T08:27:57.786Z,77.22
2023-03-26T08:28:57.772Z,77.35
2023-03-26T08:29:57.789Z,77.01
2023-03-26T08:30:58.043Z,77.11
2023-03-26T08:31:57.707Z,76.60
2023-03-26T08:32:57.741Z,75.89
2023-03-26T08:33:57.690Z,76.29
2023-03-26T08:34:57.695Z,77.22
2023-03-26T08:35:57.789Z,76.43
2023-03-26T08:36:57.684Z,77.11
2023-03-26T08:37:57.674Z,77.35
2023-03-26T08:38:57.652Z,77.11
2023-03-26T08:39:57.665Z,76.77
2023-03-26T08:40:58.937Z,77.28
2023-03-26T08:41:57.664Z,76.29
2023-03-26T08:42:57.667Z,78.17
2023-03-26T08:43:57.678Z,78.75
2023-03-26T08:44:57.622Z,77.15
2023-03-26T08:45:57.620Z,77.52
2023-03-26T08:46:57.608Z,77.42
2023-03-26T08:47:57.607Z,77.25
2023-03-26T08:48:57.636Z,75.48
2023-03-26T08:49:57.607Z,76.09
2023-03-26T08:50:57.802Z,76.09
2023-03-26T08:51:57.658Z,75.98
2023-03-26T08:52:59.102Z,75.88
2023-03-26T08:53:57.587Z,75.88
2023-03-26T08:54:57.549Z,75.71
2023-03-26T08:55:57.541Z,75.04
2023-03-26T08:56:57.668Z,75.54
2023-03-26T08:57:57.525Z,75.07
2023-03-26T08:58:57.606Z,77.62
2023-03-26T08:59:59.695Z,77.48
2023-03-26T09:00:57.608Z,76.97
2023-03-26T09:01:57.550Z,77.04
2023-03-26T09:02:57.553Z,75.92
2023-03-26T09:03:57.510Z,75.51
2023-03-26T09:04:57.602Z,76.43
2023-03-26T09:05:57.470Z,76.63
2023-03-26T09:06:57.503Z,76.32
2023-03-26T09:07:57.493Z,74.76
2023-03-26T09:08:57.446Z,75.37
2023-03-26T09:09:57.477Z,75.95
2023-03-26T09:10:57.563Z,76.05
2023-03-26T09:11:57.459Z,75.23
2023-03-26T09:12:57.491Z,75.34
2023-03-26T09:13:57.515Z,75.92
2023-03-26T09:14:57.437Z,75.13
2023-03-26T09:15:57.506Z,75.74
2023-03-26T09:16:57.397Z,76.15
2023-03-26T09:17:58.144Z,75.64
2023-03-26T09:18:58.593Z,74.93
2023-03-26T09:19:57.382Z,75.57
2023-03-26T09:20:57.745Z,75.85
2023-03-26T09:21:57.391Z,76.59
2023-03-26T09:22:57.409Z,76.80
2023-03-26T09:23:57.392Z,76.97
2023-03-26T09:24:57.357Z,76.05
2023-03-26T09:25:57.364Z,76.76
2023-03-26T09:26:57.364Z,76.39
2023-03-26T09:27:57.356Z,75.92
2023-03-26T09:28:57.330Z,77.51
2023-03-26T09:29:57.369Z,77.51
2023-03-26T09:30:57.405Z,77.82
2023-03-26T09:31:57.377Z,77.82
2023-03-26T09:32:57.314Z,77.41
2023-03-26T09:33:57.352Z,77.48
2023-03-26T09:34:57.300Z,77.37
2023-03-26T09:35:57.368Z,77.03
2023-03-26T09:36:57.342Z,76.90
2023-03-26T09:37:58.089Z,75.92
2023-03-26T09:38:57.396Z,75.71
2023-03-26T09:39:58.364Z,76.87
2023-03-26T09:40:57.444Z,77.98
2023-03-26T09:41:57.302Z,78.02
2023-03-26T09:42:57.262Z,78.02
2023-03-26T09:43:57.235Z,77.82
2023-03-26T09:44:57.228Z,78.12
2023-03-26T09:45:57.252Z,78.50
2023-03-26T09:46:57.225Z,78.23
2023-03-26T09:47:57.206Z,78.80
2023-03-26T09:48:57.248Z,78.16
2023-03-26T09:49:57.181Z,77.37
2023-03-26T09:50:57.505Z,78.50
2023-03-26T09:51:57.180Z,79.72
2023-03-26T09:52:57.304Z,79.41
2023-03-26T09:53:57.174Z,77.92
2023-03-26T09:54:57.164Z,78.91
2023-03-26T09:55:57.312Z,78.77
2023-03-26T09:56:57.257Z,78.80
2023-03-26T09:57:57.175Z,78.56
2023-03-26T09:58:57.172Z,78.46
2023-03-26T09:59:57.152Z,78.16
2023-03-26T10:00:57.444Z,77.98
2023-03-26T10:01:57.158Z,78.60
2023-03-26T10:02:57.168Z,79.00
2023-03-26T10:03:57.190Z,78.30
2023-03-26T10:04:57.104Z,79.45
2023-03-26T10:05:57.072Z,79.04
2023-03-26T10:06:57.085Z,79.11
2023-03-26T10:07:57.062Z,78.64
2023-03-26T10:08:57.076Z,79.04
2023-03-26T10:09:57.058Z,79.45
2023-03-26T10:10:57.255Z,79.45
2023-03-26T10:11:57.204Z,78.57
2023-03-26T10:13:05.042Z,79.90
2023-03-26T10:13:59.075Z,81.37
2023-03-26T10:14:57.007Z,82.04
2023-03-26T10:15:57.113Z,81.12
2023-03-26T10:16:57.119Z,81.63
2023-03-26T10:17:57.018Z,81.18
2023-03-26T10:18:57.052Z,81.45
2023-03-26T10:19:56.990Z,79.82
2023-03-26T10:20:57.082Z,78.60
2023-03-26T10:21:56.965Z,78.80
2023-03-26T10:22:57.041Z,79.41
2023-03-26T10:23:56.993Z,79.62
2023-03-26T10:24:56.975Z,80.07
2023-03-26T10:25:56.919Z,80.43
2023-03-26T10:27:09.861Z,80.57
2023-03-26T10:27:57.918Z,81.70
2023-03-26T10:28:56.924Z,82.45
2023-03-26T10:29:57.098Z,83.20
2023-03-26T10:30:57.278Z,83.16
2023-03-26T10:31:57.000Z,83.33
2023-03-26T10:32:57.098Z,82.71
2023-03-26T10:33:56.876Z,82.21
2023-03-26T10:34:56.884Z,80.88
2023-03-26T10:35:57.807Z,81.18
2023-03-26T10:36:56.859Z,80.43
2023-03-26T10:37:56.894Z,80.64
2023-03-26T10:38:56.831Z,80.40
2023-03-26T10:39:56.895Z,80.13
2023-03-26T10:40:56.973Z,80.23
2023-03-26T10:41:56.826Z,80.09
2023-03-26T10:42:56.892Z,80.26
2023-03-26T10:44:07.379Z,79.14
2023-03-26T10:44:58.802Z,78.36
2023-03-26T10:45:56.836Z,78.60
2023-03-26T10:46:56.794Z,78.50
2023-03-26T10:47:56.815Z,78.56
2023-03-26T10:48:56.768Z,78.53
2023-03-26T10:49:56.877Z,78.70
2023-03-26T10:50:56.945Z,79.00
2023-03-26T10:51:56.764Z,78.23
2023-03-26T10:52:56.764Z,80.00
2023-03-26T10:53:56.760Z,81.23
2023-03-26T10:54:56.752Z,81.16
2023-03-26T10:55:56.730Z,81.51
2023-03-26T10:56:56.792Z,82.18
2023-03-26T10:57:56.804Z,81.90
2023-03-26T10:58:56.698Z,81.59
2023-03-26T10:59:56.773Z,82.45
2023-03-26T11:00:56.876Z,82.45
2023-03-26T11:01:56.722Z,81.90
2023-03-26T11:02:56.706Z,81.59
2023-03-26T11:03:56.693Z,82.31
2023-03-26T11:04:56.721Z,83.40
2023-03-26T11:05:56.732Z,83.26
2023-03-26T11:06:56.636Z,83.81
2023-03-26T11:07:56.774Z,83.65
2023-03-26T11:08:56.691Z,84.81
2023-03-26T11:09:56.769Z,83.71
2023-03-26T11:10:56.817Z,83.40
2023-03-26T11:11:56.633Z,83.16
2023-03-26T11:12:56.679Z,82.55
2023-03-26T11:13:56.844Z,82.28
2023-03-26T11:14:56.712Z,82.18
2023-03-26T11:15:56.593Z,82.45
2023-03-26T11:16:56.568Z,81.59
2023-03-26T11:17:56.623Z,81.46
2023-03-26T11:18:56.570Z,81.84
2023-03-26T11:19:56.570Z,81.30
2023-03-26T11:20:56.785Z,81.65
2023-03-26T11:21:57.569Z,82.97
2023-03-26T11:22:56.547Z,83.75
2023-03-26T11:24:05.394Z,83.85
2023-03-26T11:24:57.543Z,83.24
2023-03-26T11:25:56.571Z,83.85
2023-03-26T11:26:56.503Z,83.69
2023-03-26T11:27:56.487Z,83.69
2023-03-26T11:29:04.127Z,83.79
2023-03-26T11:29:58.432Z,83.75
2023-03-26T11:30:56.714Z,83.65
2023-03-26T11:31:56.557Z,83.38
2023-03-26T11:32:57.512Z,83.69
2023-03-26T11:33:56.584Z,83.38
2023-03-26T11:34:56.464Z,84.91
2023-03-26T11:35:56.461Z,83.34
2023-03-26T11:36:56.469Z,83.18
2023-03-26T11:37:56.433Z,82.77
2023-03-26T11:38:56.435Z,83.42
2023-03-26T11:39:56.807Z,82.75
2023-03-26T11:40:58.043Z,84.99
2023-03-26T11:41:56.750Z,84.99
2023-03-26T11:42:56.472Z,85.16
2023-03-26T11:43:56.456Z,84.85
2023-03-26T11:44:56.500Z,84.75
2023-03-26T11:45:56.528Z,84.85
2023-03-26T11:46:56.517Z,84.99
2023-03-26T11:47:56.432Z,85.03
2023-03-26T11:48:56.361Z,85.61
2023-03-26T11:49:56.407Z,85.67
2023-03-26T11:50:56.607Z,85.57
2023-03-26T11:51:56.359Z,85.42
2023-03-26T11:52:56.349Z,84.85
2023-03-26T11:53:56.341Z,84.81
2023-03-26T11:54:56.324Z,84.28
2023-03-26T11:55:56.295Z,85.10
2023-03-26T11:57:05.018Z,85.20
2023-03-26T11:57:57.395Z,86.05
2023-03-26T11:58:56.280Z,84.99
2023-03-26T11:59:57.870Z,84.97
2023-03-26T12:00:57.496Z,85.07
2023-03-26T12:01:56.755Z,84.77
2023-03-26T12:02:56.290Z,84.87
2023-03-26T12:03:57.263Z,85.28
2023-03-26T12:04:56.285Z,85.01
2023-03-26T12:05:56.269Z,83.82
2023-03-26T12:06:56.267Z,84.12
2023-03-26T12:07:56.297Z,84.95
2023-03-26T12:08:56.285Z,84.95
2023-03-26T12:09:56.281Z,84.03
2023-03-26T12:10:56.367Z,84.06
2023-03-26T12:11:56.218Z,84.37
2023-03-26T12:12:56.227Z,84.68
2023-03-26T12:13:56.348Z,85.30
2023-03-26T12:14:56.283Z,85.09
2023-03-26T12:15:56.188Z,85.15
2023-03-26T12:16:57.187Z,84.19
2023-03-26T12:17:57.271Z,84.09
2023-03-26T12:18:56.190Z,85.11
2023-03-26T12:19:56.168Z,83.82
2023-03-26T12:20:56.234Z,85.15
2023-03-26T12:21:56.154Z,85.15
2023-03-26T12:22:56.128Z,83.61
2023-03-26T12:23:56.304Z,83.68
2023-03-26T12:24:56.142Z,83.88
2023-03-26T12:25:56.093Z,83.06
2023-03-26T12:26:56.104Z,82.71
2023-03-26T12:27:56.091Z,83.13
2023-03-26T12:28:56.145Z,83.25
2023-03-26T12:29:56.112Z,82.75
2023-03-26T12:30:56.198Z,82.54
2023-03-26T12:31:56.182Z,81.17
2023-03-26T12:32:56.080Z,80.35
2023-03-26T12:33:58.084Z,80.66
2023-03-26T12:34:56.075Z,80.87
2023-03-26T12:35:56.116Z,80.87
2023-03-26T12:36:56.033Z,80.62
2023-03-26T12:37:56.101Z,80.39
2023-03-26T12:40:06.970Z,81.10
2023-03-26T12:40:09.298Z,81.07
2023-03-26T12:40:57.044Z,80.87
2023-03-26T12:44:43.806Z,81.54
2023-03-26T12:44:47.905Z,80.83
2023-03-26T12:44:55.848Z,80.52
2023-03-26T12:44:59.148Z,80.73
2023-03-26T12:46:03.751Z,81.20
2023-03-26T12:47:58.312Z,81.51
2023-03-26T12:48:03.772Z,81.54
2023-03-26T12:48:58.108Z,80.58
2023-03-26T12:49:55.957Z,80.75
2023-03-26T12:50:56.204Z,78.13
2023-03-26T12:51:55.980Z,77.83